createdAt,value
2022-10-12T00:02:02.992Z,13.00
2022-10-12T00:04:29.808Z,13.00
2022-10-12T00:06:57.056Z,13.00
2022-10-12T00:09:23.769Z,13.00
2022-10-12T00:11:50.498Z,13.00
2022-10-12T00:14:17.375Z,13.00
2022-10-12T00:16:44.078Z,13.00
2022-10-12T00:19:11.692Z,13.00
2022-10-12T00:21:38.801Z,13.10
2022-10-12T00:24:05.941Z,13.10
2022-10-12T00:26:33.501Z,13.10
2022-10-12T00:29:01.321Z,13.10
2022-10-12T00:31:28.411Z,13.10
2022-10-12T00:33:55.153Z,13.10
2022-10-12T00:36:26.681Z,13.10
2022-10-12T00:38:54.142Z,13.10
2022-10-12T00:41:22.499Z,13.10
2022-10-12T00:43:52.843Z,13.10
2022-10-12T00:46:41.112Z,13.10
2022-10-12T00:49:20.461Z,13.10
2022-10-12T00:51:52.381Z,13.10
2022-10-12T00:54:22.056Z,13.20
2022-10-12T00:56:48.706Z,13.20
2022-10-12T00:59:20.951Z,13.10
2022-10-12T01:01:47.680Z,13.20
2022-10-12T01:04:14.333Z,13.20
2022-10-12T01:06:41.470Z,13.20
2022-10-12T01:09:08.152Z,13.30
2022-10-12T01:11:34.883Z,13.20
2022-10-12T01:14:01.590Z,13.20
2022-10-12T01:16:40.390Z,13.20
2022-10-12T01:19:25.370Z,13.10
2022-10-12T01:21:57.234Z,13.10
2022-10-12T01:24:44.751Z,13.10
2022-10-12T01:27:36.075Z,13.10
2022-10-12T01:30:19.200Z,13.10
2022-10-12T01:32:45.860Z,13.10
2022-10-12T01:35:40.869Z,13.10
2022-10-12T01:38:44.186Z,13.10
2022-10-12T01:41:50.903Z,13.10
2022-10-12T01:44:24.594Z,13.10
2022-10-12T01:46:52.222Z,13.10
2022-10-12T01:49:22.539Z,13.10
2022-10-12T01:51:51.864Z,13.10
2022-10-12T01:54:59.733Z,13.00
2022-10-12T01:57:46.780Z,13.10
2022-10-12T02:00:16.865Z,13.10
2022-10-12T02:03:10.362Z,13.10
2022-10-12T02:05:59.903Z,13.10
2022-10-12T02:08:33.138Z,13.20
2022-10-12T02:11:13.531Z,13.20
2022-10-12T02:13:51.439Z,13.20
2022-10-12T02:16:20.182Z,13.20
2022-10-12T02:18:51.832Z,13.20
2022-10-12T02:21:20.702Z,13.30
2022-10-12T02:23:47.723Z,13.20
2022-10-12T02:26:14.549Z,13.20
2022-10-12T02:28:41.312Z,13.20
2022-10-12T02:31:24.820Z,13.20
2022-10-12T02:33:53.917Z,13.30
2022-10-12T02:36:32.455Z,13.30
2022-10-12T02:39:02.929Z,13.30
2022-10-12T02:41:30.709Z,13.30
2022-10-12T02:43:59.620Z,13.30
2022-10-12T02:46:26.383Z,13.30
2022-10-12T02:48:53.797Z,13.30
2022-10-12T02:51:20.511Z,13.30
2022-10-12T02:53:47.266Z,13.30
2022-10-12T02:56:15.064Z,13.30
2022-10-12T02:58:43.017Z,13.30
2022-10-12T03:01:09.889Z,13.30
2022-10-12T03:03:36.618Z,13.30
2022-10-12T03:06:03.456Z,13.40
2022-10-12T03:08:30.206Z,13.40
2022-10-12T03:11:04.535Z,13.40
2022-10-12T03:13:31.273Z,13.30
2022-10-12T03:16:05.046Z,13.30
2022-10-12T03:18:32.195Z,13.30
2022-10-12T03:20:58.845Z,13.30
2022-10-12T03:23:25.529Z,13.30
2022-10-12T03:25:52.408Z,13.30
2022-10-12T03:28:19.268Z,13.30
2022-10-12T03:30:46.140Z,13.30
2022-10-12T03:33:12.892Z,13.30
2022-10-12T03:35:39.549Z,13.30
2022-10-12T03:38:06.262Z,13.30
2022-10-12T03:40:32.984Z,13.30
2022-10-12T03:42:59.980Z,13.30
2022-10-12T03:45:26.698Z,13.40
2022-10-12T03:47:53.459Z,13.40
2022-10-12T03:50:20.285Z,13.40
2022-10-12T03:52:47.125Z,13.30
2022-10-12T03:55:13.996Z,13.40
2022-10-12T03:57:40.897Z,13.40
2022-10-12T04:00:08.315Z,13.40
2022-10-12T04:02:35.067Z,13.40
2022-10-12T04:05:02.065Z,13.40
2022-10-12T04:07:29.003Z,13.40
2022-10-12T04:09:56.041Z,13.40
2022-10-12T04:12:22.731Z,13.40
2022-10-12T04:14:49.403Z,13.40
2022-10-12T04:17:16.534Z,13.40
2022-10-12T04:19:43.480Z,13.40
2022-10-12T04:22:10.360Z,13.40
2022-10-12T04:24:37.192Z,13.40
2022-10-12T04:27:04.014Z,13.50
2022-10-12T04:29:30.736Z,13.50
2022-10-12T04:31:57.443Z,13.50
2022-10-12T04:34:24.098Z,13.50
2022-10-12T04:36:50.878Z,13.50
2022-10-12T04:39:17.615Z,13.50
2022-10-12T04:41:44.311Z,13.50
2022-10-12T04:44:11.007Z,13.50
2022-10-12T04:46:37.767Z,13.50
2022-10-12T04:49:04.557Z,13.50
2022-10-12T04:51:31.229Z,13.50
2022-10-12T04:53:58.044Z,13.50
2022-10-12T04:56:24.803Z,13.50
2022-10-12T04:58:51.498Z,13.50
2022-10-12T05:01:18.361Z,13.50
2022-10-12T05:03:45.097Z,13.60
2022-10-12T05:06:11.880Z,13.60
2022-10-12T05:08:38.556Z,13.60
2022-10-12T05:11:06.166Z,13.50
2022-10-12T05:13:32.950Z,13.60
2022-10-12T05:15:59.651Z,13.60
2022-10-12T05:18:26.378Z,13.60
2022-10-12T05:20:56.794Z,13.60
2022-10-12T05:23:23.834Z,13.60
2022-10-12T05:25:50.515Z,13.60
2022-10-12T05:28:17.280Z,13.60
2022-10-12T05:30:44.017Z,13.60
2022-10-12T05:33:10.685Z,13.60
2022-10-12T05:35:37.423Z,13.60
2022-10-12T05:38:04.163Z,13.60
2022-10-12T05:40:30.896Z,13.60
2022-10-12T05:42:57.574Z,13.60
2022-10-12T05:45:24.355Z,13.50
2022-10-12T05:47:51.508Z,13.60
2022-10-12T05:50:18.195Z,13.60
2022-10-12T05:52:45.143Z,13.60
2022-10-12T05:55:11.889Z,13.60
2022-10-12T05:57:38.696Z,13.60
2022-10-12T06:00:06.398Z,13.60
2022-10-12T06:02:33.086Z,13.60
2022-10-12T06:04:59.912Z,13.60
2022-10-12T06:07:27.068Z,13.60
2022-10-12T06:09:53.989Z,13.60
2022-10-12T06:12:20.969Z,13.60
2022-10-12T06:14:47.805Z,13.60
2022-10-12T06:17:14.505Z,13.60
2022-10-12T06:19:41.308Z,13.60
2022-10-12T06:22:08.089Z,13.60
2022-10-12T06:24:34.825Z,13.70
2022-10-12T06:27:01.518Z,13.70
2022-10-12T06:29:28.188Z,13.70
2022-10-12T06:31:54.928Z,13.70
2022-10-12T06:34:21.574Z,13.70
2022-10-12T06:36:49.020Z,13.60
2022-10-12T06:39:15.783Z,13.60
2022-10-12T06:41:42.599Z,13.60
2022-10-12T06:44:10.483Z,13.50
2022-10-12T06:46:37.208Z,13.50
2022-10-12T06:49:03.981Z,13.50
2022-10-12T06:51:30.683Z,13.60
2022-10-12T06:53:57.455Z,13.60
2022-10-12T06:56:24.352Z,13.60
2022-10-12T06:58:55.689Z,13.50
2022-10-12T07:01:22.529Z,13.50
2022-10-12T07:03:49.407Z,13.40
2022-10-12T07:06:16.221Z,13.50
2022-10-12T07:08:42.989Z,13.40
2022-10-12T07:11:11.048Z,13.40
2022-10-12T07:13:37.810Z,13.40
2022-10-12T07:16:04.692Z,13.40
2022-10-12T07:18:31.505Z,13.50
2022-10-12T07:20:59.823Z,13.50
2022-10-12T07:23:27.396Z,13.50
2022-10-12T07:25:54.256Z,13.60
2022-10-12T07:28:21.679Z,13.60
2022-10-12T07:30:48.640Z,13.70
2022-10-12T07:33:15.718Z,13.70
2022-10-12T07:36:03.227Z,13.70
2022-10-12T07:38:29.400Z,13.70
2022-10-12T07:40:59.373Z,13.80
2022-10-12T07:43:26.220Z,13.80
2022-10-12T07:45:53.112Z,13.80
2022-10-12T07:48:20.356Z,13.90
2022-10-12T07:50:47.377Z,13.90
2022-10-12T07:53:14.232Z,14.00
2022-10-12T07:55:40.928Z,14.00
2022-10-12T07:58:07.688Z,14.10
2022-10-12T08:00:34.504Z,14.10
2022-10-12T08:03:01.209Z,14.20
2022-10-12T08:05:27.959Z,14.20
2022-10-12T08:07:54.866Z,14.10
2022-10-12T08:10:21.939Z,14.20
2022-10-12T08:12:52.005Z,14.10
2022-10-12T08:15:19.204Z,14.00
2022-10-12T08:17:45.948Z,14.10
2022-10-12T08:20:12.660Z,14.00
2022-10-12T08:22:39.321Z,14.10
2022-10-12T08:25:06.597Z,14.10
2022-10-12T08:27:33.344Z,14.00
2022-10-12T08:30:00.098Z,14.10
2022-10-12T08:32:27.252Z,14.10
2022-10-12T08:34:54.014Z,14.10
2022-10-12T08:37:20.743Z,14.10
2022-10-12T08:39:47.575Z,14.10
2022-10-12T08:42:43.792Z,14.10
2022-10-12T08:45:22.385Z,14.10
2022-10-12T08:47:54.348Z,14.10
2022-10-12T08:50:32.144Z,14.20
2022-10-12T08:53:02.377Z,14.20
2022-10-12T08:55:42.157Z,14.30
2022-10-12T08:58:17.338Z,14.30
2022-10-12T09:00:45.541Z,14.40
2022-10-12T09:03:47.114Z,14.40
2022-10-12T09:06:17.720Z,14.50
2022-10-12T09:08:50.550Z,14.50
2022-10-12T09:11:24.464Z,14.60
2022-10-12T09:14:03.469Z,14.60
2022-10-12T09:16:31.354Z,14.60
2022-10-12T09:19:18.308Z,14.70
2022-10-12T09:21:46.246Z,14.70
2022-10-12T09:24:21.181Z,14.70
2022-10-12T09:26:50.549Z,14.80
2022-10-12T09:29:27.431Z,14.80
2022-10-12T09:32:03.012Z,14.90
2022-10-12T09:34:29.860Z,14.90
2022-10-12T09:36:56.586Z,14.90
2022-10-12T09:39:30.084Z,15.00
2022-10-12T09:41:57.142Z,15.10
2022-10-12T09:44:31.218Z,15.10
2022-10-12T09:46:59.965Z,15.10
2022-10-12T09:49:43.061Z,15.10
2022-10-12T09:52:10.320Z,15.20
2022-10-12T09:57:30.892Z,15.30
2022-10-12T09:59:57.602Z,15.30
2022-10-12T10:02:25.725Z,15.30
2022-10-12T10:04:52.750Z,15.30
2022-10-12T10:07:33.449Z,15.40
2022-10-12T10:10:03.218Z,15.40
2022-10-12T10:12:29.917Z,15.40
2022-10-12T10:14:57.441Z,15.40
2022-10-12T10:17:32.677Z,15.40
2022-10-12T10:20:00.923Z,15.50
2022-10-12T10:22:28.159Z,15.60
2022-10-12T10:25:00.126Z,15.60
2022-10-12T10:27:38.504Z,15.60
2022-10-12T10:30:28.512Z,15.60
2022-10-12T10:33:13.745Z,15.60
2022-10-12T10:35:40.472Z,15.60
2022-10-12T10:38:09.224Z,15.60
2022-10-12T10:40:35.992Z,15.60
2022-10-12T10:43:04.388Z,15.70
2022-10-12T10:45:33.761Z,15.60
2022-10-12T10:48:07.286Z,15.70
2022-10-12T10:50:39.084Z,15.60
2022-10-12T10:53:07.798Z,15.60
2022-10-12T10:56:11.545Z,15.70
2022-10-12T10:58:44.164Z,15.70
2022-10-12T11:01:28.744Z,15.70
2022-10-12T11:03:56.791Z,15.80
2022-10-12T11:06:36.097Z,15.90
2022-10-12T11:09:11.054Z,15.90
2022-10-12T11:11:37.982Z,16.10
2022-10-12T11:14:14.880Z,16.20
2022-10-12T11:16:53.372Z,16.20
2022-10-12T11:19:57.830Z,16.20
2022-10-12T11:22:47.293Z,16.20
2022-10-12T11:25:29.471Z,16.30
2022-10-12T11:27:56.186Z,16.40
2022-10-12T11:30:24.969Z,16.50
2022-10-12T11:33:03.331Z,16.50
2022-10-12T11:35:34.438Z,16.60
2022-10-12T11:38:11.579Z,16.70
2022-10-12T11:41:19.069Z,16.70
2022-10-12T11:44:18.365Z,16.80
2022-10-12T11:46:59.496Z,16.90
2022-10-12T11:49:29.049Z,17.00
2022-10-12T11:51:57.727Z,17.10
2022-10-12T11:54:29.118Z,17.10
2022-10-12T11:56:58.178Z,17.20
2022-10-12T11:59:33.689Z,17.30
2022-10-12T12:02:11.179Z,17.30
2022-10-12T12:04:42.791Z,17.40
2022-10-12T12:07:43.182Z,17.50
2022-10-12T12:10:30.549Z,17.60
2022-10-12T12:13:23.036Z,17.70
2022-10-12T12:15:49.898Z,17.70
2022-10-12T12:18:18.553Z,17.80
2022-10-12T12:20:45.367Z,17.90
2022-10-12T12:23:25.798Z,18.00
2022-10-12T12:26:15.614Z,18.00
2022-10-12T12:28:49.947Z,18.00
2022-10-12T12:31:25.060Z,18.00
2022-10-12T12:34:05.385Z,18.00
2022-10-12T12:36:37.801Z,18.00
2022-10-12T12:39:05.588Z,18.10
2022-10-12T12:41:57.651Z,18.10
2022-10-12T12:44:46.174Z,18.20
2022-10-12T12:50:07.574Z,18.30
2022-10-12T12:52:35.425Z,18.30
2022-10-12T12:55:14.068Z,18.30
2022-10-12T12:57:59.350Z,18.40
2022-10-12T13:00:29.106Z,18.50
2022-10-12T13:03:04.800Z,18.50
2022-10-12T13:05:40.535Z,18.60
2022-10-12T13:08:19.109Z,18.60
2022-10-12T13:10:58.177Z,18.60
2022-10-12T13:13:45.535Z,18.60
2022-10-12T13:17:30.274Z,18.70
2022-10-12T13:19:24.012Z,18.70
2022-10-12T13:21:52.172Z,18.70
2022-10-12T13:24:29.915Z,18.80
2022-10-12T13:27:06.052Z,18.90
2022-10-12T13:29:41.408Z,18.80
2022-10-12T13:32:16.560Z,18.90
2022-10-12T13:34:44.006Z,18.80
2022-10-12T13:37:14.830Z,18.90
2022-10-12T13:39:44.747Z,18.90
2022-10-12T13:42:16.964Z,19.00
2022-10-12T13:44:44.516Z,19.00
2022-10-12T13:47:28.391Z,19.10
2022-10-12T13:49:55.864Z,19.10
2022-10-12T13:52:33.122Z,19.10
2022-10-12T13:55:00.373Z,19.20
2022-10-12T13:57:35.165Z,19.20
2022-10-12T14:00:10.183Z,19.20
2022-10-12T14:02:37.010Z,19.20
2022-10-12T14:05:05.385Z,19.30
2022-10-12T14:07:34.506Z,19.30
2022-10-12T14:10:31.526Z,19.30
2022-10-12T14:12:58.279Z,19.30
2022-10-12T14:15:26.381Z,19.30
2022-10-12T14:17:54.812Z,19.30
2022-10-12T14:20:39.103Z,19.40
2022-10-12T14:23:24.095Z,19.40
2022-10-12T14:25:51.885Z,19.40
2022-10-12T14:28:32.795Z,19.40
2022-10-12T14:30:59.789Z,19.40
2022-10-12T14:33:26.628Z,19.30
2022-10-12T14:36:01.044Z,19.30
2022-10-12T14:38:39.749Z,19.20
2022-10-12T14:41:28.431Z,19.10
2022-10-12T14:44:16.372Z,19.00
2022-10-12T14:47:13.956Z,19.00
2022-10-12T14:49:45.281Z,19.00
2022-10-12T14:52:23.648Z,19.10
2022-10-12T14:54:53.730Z,19.10
2022-10-12T14:57:20.618Z,19.10
2022-10-12T14:59:47.419Z,19.10
2022-10-12T15:02:22.503Z,19.10
2022-10-12T15:04:49.443Z,19.10
2022-10-12T15:07:22.899Z,19.10
2022-10-12T15:09:49.625Z,19.10
2022-10-12T15:12:17.879Z,19.10
2022-10-12T15:14:44.834Z,19.10
2022-10-12T15:17:14.730Z,19.00
2022-10-12T15:19:41.997Z,18.90
2022-10-12T15:22:10.816Z,18.90
2022-10-12T15:24:37.550Z,18.90
2022-10-12T15:27:04.310Z,18.90
2022-10-12T15:29:31.058Z,18.90
2022-10-12T15:31:59.500Z,18.80
2022-10-12T15:34:26.557Z,18.80
2022-10-12T15:36:53.480Z,18.80
2022-10-12T15:39:20.347Z,18.80
2022-10-12T15:41:47.041Z,18.80
2022-10-12T15:44:14.504Z,18.70
2022-10-12T15:46:41.445Z,18.70
2022-10-12T15:49:08.253Z,18.70
2022-10-12T15:51:40.895Z,18.70
2022-10-12T15:54:07.692Z,18.60
2022-10-12T15:56:34.430Z,18.60
2022-10-12T15:59:01.139Z,18.50
2022-10-12T16:01:27.991Z,18.50
2022-10-12T16:03:54.812Z,18.30
2022-10-12T16:06:21.647Z,18.30
2022-10-12T16:08:48.416Z,18.20
2022-10-12T16:11:15.907Z,18.20
2022-10-12T16:13:48.935Z,18.00
2022-10-12T16:16:19.287Z,18.00
2022-10-12T16:18:45.986Z,17.90
2022-10-12T16:21:12.687Z,17.90
2022-10-12T16:23:39.828Z,17.80
2022-10-12T16:26:08.923Z,17.70
2022-10-12T16:28:35.715Z,17.60
2022-10-12T16:31:02.763Z,17.60
2022-10-12T16:33:29.485Z,17.50
2022-10-12T16:35:56.184Z,17.50
2022-10-12T16:38:22.884Z,17.30
2022-10-12T16:40:49.944Z,17.30
2022-10-12T16:43:16.850Z,17.20
2022-10-12T16:45:43.576Z,17.20
2022-10-12T16:48:10.567Z,17.20
2022-10-12T16:50:40.426Z,17.10
2022-10-12T16:53:07.638Z,16.90
2022-10-12T16:55:37.250Z,17.00
2022-10-12T16:58:03.944Z,16.90
2022-10-12T17:00:30.712Z,16.80
2022-10-12T17:02:57.618Z,16.70
2022-10-12T17:05:24.425Z,16.70
2022-10-12T17:07:51.152Z,16.60
2022-10-12T17:10:18.089Z,16.60
2022-10-12T17:12:44.853Z,16.50
2022-10-12T17:15:11.572Z,16.50
2022-10-12T17:17:38.263Z,16.40
2022-10-12T17:20:05.291Z,16.30
2022-10-12T17:22:32.157Z,16.20
2022-10-12T17:24:59.008Z,16.20
2022-10-12T17:27:29.952Z,16.10
2022-10-12T17:29:59.588Z,16.10
2022-10-12T17:32:26.692Z,16.00
2022-10-12T17:34:53.424Z,15.90
2022-10-12T17:37:21.892Z,15.90
2022-10-12T17:39:50.231Z,15.90
2022-10-12T17:42:17.826Z,15.80
2022-10-12T17:44:44.888Z,15.80
2022-10-12T17:47:11.594Z,15.70
2022-10-12T17:49:38.292Z,15.70
2022-10-12T17:52:05.302Z,15.70
2022-10-12T17:54:32.836Z,15.60
2022-10-12T17:56:59.572Z,15.60
2022-10-12T17:59:26.368Z,15.50
2022-10-12T18:01:53.404Z,15.40
2022-10-12T18:04:20.310Z,15.40
2022-10-12T18:06:47.005Z,15.30
2022-10-12T18:09:13.843Z,15.30
2022-10-12T18:11:40.657Z,15.30
2022-10-12T18:14:10.524Z,15.30
2022-10-12T18:16:37.410Z,15.20
2022-10-12T18:19:05.233Z,15.20
2022-10-12T18:21:32.503Z,15.20
2022-10-12T18:24:02.908Z,15.10
2022-10-12T18:26:30.587Z,15.00
2022-10-12T18:28:59.573Z,14.90
2022-10-12T18:31:26.640Z,14.80
2022-10-12T18:33:53.741Z,14.80
2022-10-12T18:36:20.516Z,14.80
2022-10-12T18:38:47.358Z,14.70
2022-10-12T18:41:19.187Z,14.70
2022-10-12T18:43:45.902Z,14.70
2022-10-12T18:46:14.210Z,14.60
2022-10-12T18:48:40.996Z,14.60
2022-10-12T18:51:15.439Z,14.50
2022-10-12T18:53:42.167Z,14.50
2022-10-12T18:56:09.919Z,14.50
2022-10-12T18:58:38.211Z,14.40
2022-10-12T19:01:15.758Z,14.40
2022-10-12T19:03:42.538Z,14.30
2022-10-12T19:06:13.807Z,14.20
2022-10-12T19:08:40.805Z,14.10
2022-10-12T19:11:08.231Z,14.10
2022-10-12T19:13:35.956Z,14.10
2022-10-12T19:16:13.111Z,14.00
2022-10-12T19:18:40.053Z,13.90
2022-10-12T19:21:08.539Z,13.90
2022-10-12T19:23:35.446Z,13.90
2022-10-12T19:26:13.655Z,13.80
2022-10-12T19:28:40.384Z,13.70
2022-10-12T19:31:13.195Z,13.70
2022-10-12T19:33:39.960Z,13.60
2022-10-12T19:36:07.665Z,13.50
2022-10-12T19:38:34.409Z,13.50
2022-10-12T19:41:01.157Z,13.40
2022-10-12T19:43:27.923Z,13.40
2022-10-12T19:45:54.692Z,13.30
2022-10-12T19:48:21.529Z,13.30
2022-10-12T19:50:48.288Z,13.20
2022-10-12T19:53:15.080Z,13.10
2022-10-12T19:55:41.851Z,13.20
2022-10-12T19:58:08.895Z,13.10
2022-10-12T20:00:35.974Z,13.00
2022-10-12T20:03:04.997Z,13.00
2022-10-12T20:05:31.740Z,12.90
2022-10-12T20:07:58.603Z,12.80
2022-10-12T20:10:25.373Z,12.70
2022-10-12T20:12:52.085Z,12.70
2022-10-12T20:15:18.816Z,12.60
2022-10-12T20:17:45.541Z,12.70
2022-10-12T20:20:12.510Z,12.70
2022-10-12T20:22:39.260Z,12.60
2022-10-12T20:25:09.618Z,12.60
2022-10-12T20:27:36.987Z,12.60
2022-10-12T20:30:04.870Z,12.50
2022-10-12T20:32:31.633Z,12.50
2022-10-12T20:34:58.356Z,12.40
2022-10-12T20:37:25.093Z,12.40
2022-10-12T20:39:52.237Z,12.20
2022-10-12T20:42:21.937Z,12.10
2022-10-12T20:44:49.036Z,12.00
2022-10-12T20:47:15.964Z,11.90
2022-10-12T20:49:42.784Z,11.90
2022-10-12T20:52:09.666Z,11.80
2022-10-12T20:54:36.791Z,11.80
2022-10-12T20:57:06.626Z,11.70
2022-10-12T20:59:36.800Z,11.70
2022-10-12T21:02:03.540Z,11.70
2022-10-12T21:04:33.573Z,11.70
2022-10-12T21:07:02.953Z,11.60
2022-10-12T21:09:29.633Z,11.50
2022-10-12T21:11:56.536Z,11.50
2022-10-12T21:14:26.291Z,11.40
2022-10-12T21:16:53.239Z,11.40
2022-10-12T21:19:19.932Z,11.40
2022-10-12T21:21:46.763Z,11.30
2022-10-12T21:24:13.596Z,11.20
2022-10-12T21:26:40.350Z,11.20
2022-10-12T21:29:07.076Z,11.20
2022-10-12T21:31:33.911Z,11.20
2022-10-12T21:34:01.657Z,11.10
2022-10-12T21:36:28.629Z,11.10
2022-10-12T21:38:55.490Z,11.00
2022-10-12T21:41:23.746Z,11.00
2022-10-12T21:43:50.655Z,11.00
2022-10-12T21:46:25.414Z,11.00
2022-10-12T21:48:52.221Z,10.90
2022-10-12T21:51:19.569Z,10.90
2022-10-12T21:53:46.393Z,10.90
2022-10-12T21:56:18.154Z,10.80
2022-10-12T21:58:45.136Z,10.70
2022-10-12T22:01:14.340Z,10.70
2022-10-12T22:03:41.564Z,10.60
2022-10-12T22:06:12.505Z,10.60
2022-10-12T22:08:39.264Z,10.50
2022-10-12T22:11:07.249Z,10.50
2022-10-12T22:13:34.583Z,10.50
2022-10-12T22:16:09.332Z,10.40
2022-10-12T22:18:36.100Z,10.40
2022-10-12T22:21:10.579Z,10.30
2022-10-12T22:23:37.262Z,10.30
2022-10-12T22:26:09.192Z,10.30
2022-10-12T22:28:36.130Z,10.20
2022-10-12T22:31:07.289Z,10.20
2022-10-12T22:33:34.463Z,10.20
2022-10-12T22:36:01.378Z,10.20
2022-10-12T22:38:28.406Z,10.10
2022-10-12T22:40:59.707Z,10.10
2022-10-12T22:43:27.027Z,10.10
2022-10-12T22:45:54.136Z,10.10
2022-10-12T22:48:21.189Z,10.10
2022-10-12T22:50:48.120Z,10.10
2022-10-12T22:53:15.103Z,10.10
2022-10-12T22:55:42.164Z,10.10
2022-10-12T22:58:08.896Z,10.10
2022-10-12T23:00:35.603Z,10.10
2022-10-12T23:03:02.732Z,10.10
2022-10-12T23:05:29.500Z,10.10
2022-10-12T23:07:56.168Z,10.10
2022-10-12T23:10:23.142Z,10.10
2022-10-12T23:12:49.840Z,10.20
2022-10-12T23:15:16.723Z,10.10
2022-10-12T23:17:43.405Z,10.00
2022-10-12T23:20:10.535Z,10.00
2022-10-12T23:22:37.324Z,10.00
2022-10-12T23:25:04.233Z,9.90
2022-10-12T23:27:30.912Z,9.90
2022-10-12T23:29:57.611Z,9.90
2022-10-12T23:32:24.471Z,9.80
2022-10-12T23:34:51.192Z,9.80
2022-10-12T23:37:18.065Z,9.80
2022-10-12T23:39:44.760Z,9.80
2022-10-12T23:42:11.483Z,9.80
2022-10-12T23:44:38.174Z,9.80
2022-10-12T23:47:04.901Z,9.70
2022-10-12T23:49:31.594Z,9.80
2022-10-12T23:51:58.304Z,9.80
2022-10-12T23:54:25.095Z,9.80
2022-10-12T23:56:51.816Z,9.80
2022-10-12T23:59:18.617Z,9.90
